Loch Lomond, California
Current Conditions -  °F | °C
As of 3:53 PM on Thursday 18 Dec 2014 (Local Time) from KSTS Reporting Station
Haze Haze  
Wind Chill: 55°   Ceiling: 2400
Heat Index: 55°   Visibility: 5mi
Dew Point: 53°   Wind: 3mph
Humidity: 93%   Direction: 100°E
Pressure: 30.12"   Gusts: NA
Location:  38.7763°N, 122.598°W
Report Text: KSTS 182353Z 10003KT 5SM BR SCT008 BKN024 OVC030 13/12 A3012 RMK AO2 RAE16 SLP194 VIS 3 E P0000 60000 T01280117 10133 20106 58003
Loading
Personal Weather Stations






























Interactive Weather Map New forecast layout! Learn more

10-Day Weather Forecast

Advertisements
Track Severe Weather on mobile